sensor_id;sensor_type;location;lat;lon;timestamp;pressure;altitude;pressure_sealevel;temperature;humidity
31096;BME280;17749;51.962;8.560;2023-02-13T06:03:01;102199.88;;;6.61;100.00
31096;BME280;17749;51.962;8.560;2023-02-13T06:05:27;102193.69;;;6.58;100.00
31096;BME280;17749;51.962;8.560;2023-02-13T06:07:54;102206.91;;;6.58;100.00
31096;BME280;17749;51.962;8.560;2023-02-13T06:10:21;102202.50;;;6.59;100.00
31096;BME280;17749;51.962;8.560;2023-02-13T06:12:47;102208.69;;;6.59;100.00
31096;BME280;17749;51.962;8.560;2023-02-13T06:15:14;102202.53;;;6.61;100.00
31096;BME280;17749;51.962;8.560;2023-02-13T06:17:41;102214.84;;;6.60;100.00
31096;BME280;17749;51.962;8.560;2023-02-13T06:20:08;102206.06;;;6.61;100.00
31096;BME280;17749;51.962;8.560;2023-02-13T06:22:35;102213.13;;;6.61;100.00
31096;BME280;17749;51.962;8.560;2023-02-13T06:25:02;102212.25;;;6.62;100.00
31096;BME280;17749;51.962;8.560;2023-02-13T06:27:30;102219.28;;;6.63;100.00
31096;BME280;17749;51.962;8.560;2023-02-13T06:29:57;102221.09;;;6.64;100.00
31096;BME280;17749;51.962;8.560;2023-02-13T06:32:24;102221.09;;;6.64;100.00
31096;BME280;17749;51.962;8.560;2023-02-13T06:34:51;102217.53;;;6.62;100.00
31096;BME280;17749;51.962;8.560;2023-02-13T06:37:17;102224.66;;;6.66;100.00
31096;BME280;17749;51.962;8.560;2023-02-13T06:39:44;102227.28;;;6.64;100.00
31096;BME280;17749;51.962;8.560;2023-02-13T06:42:11;102228.13;;;6.62;100.00
31096;BME280;17749;51.962;8.560;2023-02-13T06:44:38;102229.03;;;6.64;100.00
31096;BME280;17749;51.962;8.560;2023-02-13T06:47:05;102229.94;;;6.66;100.00
31096;BME280;17749;51.962;8.560;2023-02-13T06:49:32;102229.91;;;6.64;100.00
31096;BME280;17749;51.962;8.560;2023-02-13T06:51:59;102229.03;;;6.64;100.00
31096;BME280;17749;51.962;8.560;2023-02-13T06:54:26;102235.25;;;6.66;100.00
31096;BME280;17749;51.962;8.560;2023-02-13T06:57:12;102234.34;;;6.64;100.00
31096;BME280;17749;51.962;8.560;2023-02-13T06:59:39;102235.22;;;6.64;100.00
31096;BME280;17749;51.962;8.560;2023-02-13T07:02:07;102244.03;;;6.65;100.00
31096;BME280;17749;51.962;8.560;2023-02-13T07:04:34;102247.53;;;6.61;100.00
31096;BME280;17749;51.962;8.560;2023-02-13T07:07:01;102242.19;;;6.57;100.00
31096;BME280;17749;51.962;8.560;2023-02-13T07:09:29;102242.25;;;6.62;100.00
31096;BME280;17749;51.962;8.560;2023-02-13T07:11:56;102244.91;;;6.62;100.00
31096;BME280;17749;51.962;8.560;2023-02-13T07:14:23;102247.50;;;6.59;100.00
31096;BME280;17749;51.962;8.560;2023-02-13T07:16:50;102243.09;;;6.59;100.00
31096;BME280;17749;51.962;8.560;2023-02-13T07:19:17;102243.97;;;6.55;100.00
31096;BME280;17749;51.962;8.560;2023-02-13T07:21:44;102243.97;;;6.55;100.00
31096;BME280;17749;51.962;8.560;2023-02-13T07:24:11;102247.47;;;6.57;100.00
31096;BME280;17749;51.962;8.560;2023-02-13T07:26:38;102248.41;;;6.58;100.00
31096;BME280;17749;51.962;8.560;2023-02-13T07:29:05;102250.16;;;6.59;100.00
31096;BME280;17749;51.962;8.560;2023-02-13T07:31:37;102241.34;;;6.60;100.00
31096;BME280;17749;51.962;8.560;2023-02-13T07:34:06;102248.41;;;6.59;100.00
31096;BME280;17749;51.962;8.560;2023-02-13T07:36:33;102243.97;;;6.58;100.00
31096;BME280;17749;51.962;8.560;2023-02-13T07:39:00;102250.19;;;6.61;100.00
31096;BME280;17749;51.962;8.560;2023-02-13T07:41:27;102247.53;;;6.61;100.00
31096;BME280;17749;51.962;8.560;2023-02-13T07:43:53;102250.19;;;6.61;100.00
31096;BME280;17749;51.962;8.560;2023-02-13T07:46:20;102250.19;;;6.62;100.00
31096;BME280;17749;51.962;8.560;2023-02-13T07:48:47;102257.31;;;6.66;100.00
31096;BME280;17749;51.962;8.560;2023-02-13T07:51:14;102254.66;;;6.68;100.00
31096;BME280;17749;51.962;8.560;2023-02-13T07:53:41;102254.66;;;6.68;100.00
31096;BME280;17749;51.962;8.560;2023-02-13T07:56:09;102255.56;;;6.70;100.00
31096;BME280;17749;51.962;8.560;2023-02-13T07:58:37;102264.38;;;6.69;100.00
31096;BME280;17749;51.962;8.560;2023-02-13T08:01:07;102260.84;;;6.67;100.00
31096;BME280;17749;51.962;8.560;2023-02-13T08:03:35;102258.16;;;6.64;100.00
31096;BME280;17749;51.962;8.560;2023-02-13T08:06:02;102265.25;;;6.68;100.00
31096;BME280;17749;51.962;8.560;2023-02-13T08:08:29;102255.50;;;6.65;100.00
31096;BME280;17749;51.962;8.560;2023-02-13T08:11:01;102263.47;;;6.67;100.00
31096;BME280;17749;51.962;8.560;2023-02-13T08:13:46;102261.75;;;6.69;100.00
31096;BME280;17749;51.962;8.560;2023-02-13T08:16:13;102265.31;;;6.71;100.00
31096;BME280;17749;51.962;8.560;2023-02-13T08:18:40;102262.59;;;6.66;100.00
31096;BME280;17749;51.962;8.560;2023-02-13T08:21:07;102259.94;;;6.63;100.00
31096;BME280;17749;51.962;8.560;2023-02-13T08:23:34;102259.91;;;6.65;100.00
31096;BME280;17749;51.962;8.560;2023-02-13T08:26:01;102253.78;;;6.67;100.00
31096;BME280;17749;51.962;8.560;2023-02-13T08:28:29;102253.81;;;6.72;100.00
31096;BME280;17749;51.962;8.560;2023-02-13T08:30:56;102263.63;;;6.79;100.00
31096;BME280;17749;51.962;8.560;2023-02-13T08:33:22;102256.53;;;6.81;100.00
31096;BME280;17749;51.962;8.560;2023-02-13T08:35:49;102259.16;;;6.78;100.00
31096;BME280;17749;51.962;8.560;2023-02-13T08:38:16;102260.00;;;6.72;100.00
31096;BME280;17749;51.962;8.560;2023-02-13T08:40:43;102260.88;;;6.73;100.00
31096;BME280;17749;51.962;8.560;2023-02-13T08:43:11;102259.19;;;6.76;100.00
31096;BME280;17749;51.962;8.560;2023-02-13T08:45:40;102251.13;;;6.67;100.00
31096;BME280;17749;51.962;8.560;2023-02-13T08:48:08;102253.88;;;6.78;100.00
31096;BME280;17749;51.962;8.560;2023-02-13T08:50:35;102252.09;;;6.78;100.00
31096;BME280;17749;51.962;8.560;2023-02-13T08:53:03;102247.69;;;6.76;100.00
31096;BME280;17749;51.962;8.560;2023-02-13T08:55:30;102253.91;;;6.79;100.00
31096;BME280;17749;51.962;8.560;2023-02-13T08:58:02;102259.25;;;6.86;100.00
31096;BME280;17749;51.962;8.560;2023-02-13T09:00:30;102265.44;;;6.86;100.00
31096;BME280;17749;51.962;8.560;2023-02-13T09:03:01;102265.44;;;6.86;100.00
31096;BME280;17749;51.962;8.560;2023-02-13T09:05:29;102272.59;;;6.96;100.00
31096;BME280;17749;51.962;8.560;2023-02-13T09:08:01;102266.41;;;6.96;100.00
31096;BME280;17749;51.962;8.560;2023-02-13T09:10:30;102270.03;;;7.02;100.00
31096;BME280;17749;51.962;8.560;2023-02-13T09:12:57;102273.66;;;7.14;100.00
31096;BME280;17749;51.962;8.560;2023-02-13T09:15:24;102278.13;;;7.21;100.00
31096;BME280;17749;51.962;8.560;2023-02-13T09:17:52;102274.63;;;7.28;100.00
31096;BME280;17749;51.962;8.560;2023-02-13T09:20:19;102269.38;;;7.31;100.00
31096;BME280;17749;51.962;8.560;2023-02-13T09:22:45;102268.50;;;7.35;100.00
31096;BME280;17749;51.962;8.560;2023-02-13T09:25:13;102266.81;;;7.42;100.00
31096;BME280;17749;51.962;8.560;2023-02-13T09:27:40;102269.47;;;7.46;100.00
31096;BME280;17749;51.962;8.560;2023-02-13T09:30:08;102267.75;;;7.52;100.00
31096;BME280;17749;51.962;8.560;2023-02-13T09:32:36;102267.78;;;7.55;100.00
31096;BME280;17749;51.962;8.560;2023-02-13T09:35:06;102269.59;;;7.62;100.00
31096;BME280;17749;51.962;8.560;2023-02-13T09:37:33;102266.06;;;7.60;100.00
31096;BME280;17749;51.962;8.560;2023-02-13T09:39:59;102260.75;;;7.60;100.00
31096;BME280;17749;51.962;8.560;2023-02-13T09:42:30;102265.16;;;7.59;100.00
31096;BME280;17749;51.962;8.560;2023-02-13T09:45:00;102272.28;;;7.66;100.00
31096;BME280;17749;51.962;8.560;2023-02-13T09:47:30;102274.94;;;7.68;100.00
31096;BME280;17749;51.962;8.560;2023-02-13T09:50:06;102276.72;;;7.69;100.00
31096;BME280;17749;51.962;8.560;2023-02-13T09:52:37;102269.66;;;7.74;100.00
31096;BME280;17749;51.962;8.560;2023-02-13T09:55:18;102269.69;;;7.80;100.00
31096;BME280;17749;51.962;8.560;2023-02-13T09:58:16;102275.94;;;7.84;100.00
31096;BME280;17749;51.962;8.560;2023-02-13T10:00:56;102271.50;;;7.87;100.00
31096;BME280;17749;51.962;8.560;2023-02-13T10:03:28;102270.66;;;7.93;100.00
31096;BME280;17749;51.962;8.560;2023-02-13T10:06:28;102275.09;;;7.96;100.00
31096;BME280;17749;51.962;8.560;2023-02-13T10:09:12;102283.06;;;7.99;100.00
31096;BME280;17749;51.962;8.560;2023-02-13T10:14:48;102275.16;;;8.09;100.00
31096;BME280;17749;51.962;8.560;2023-02-13T10:17:31;102271.66;;;8.15;100.00
31096;BME280;17749;51.962;8.560;2023-02-13T10:22:51;102260.19;;;8.24;100.00
31096;BME280;17749;51.962;8.560;2023-02-13T10:25:27;102263.72;;;8.27;100.00
31096;BME280;17749;51.962;8.560;2023-02-13T10:28:10;102262.88;;;8.34;100.00
31096;BME280;17749;51.962;8.560;2023-02-13T10:30:55;102267.31;;;8.31;100.00
31096;BME280;17749;51.962;8.560;2023-02-13T10:41:24;102265.63;;;8.50;100.00
31096;BME280;17749;51.962;8.560;2023-02-13T10:46:58;102260.34;;;8.54;100.00
31096;BME280;17749;51.962;8.560;2023-02-13T11:03:17;102251.53;;;8.98;100.00
31096;BME280;17749;51.962;8.560;2023-02-13T11:05:45;102254.19;;;9.06;100.00
31096;BME280;17749;51.962;8.560;2023-02-13T11:08:47;102251.53;;;9.14;100.00
31096;BME280;17749;51.962;8.560;2023-02-13T11:11:36;102248.00;;;9.19;100.00
31096;BME280;17749;51.962;8.560;2023-02-13T11:19:19;102238.25;;;9.12;100.00
31096;BME280;17749;51.962;8.560;2023-02-13T11:21:52;102245.34;;;9.10;100.00
31096;BME280;17749;51.962;8.560;2023-02-13T11:24:25;102239.13;;;8.96;100.00
31096;BME280;17749;51.962;8.560;2023-02-13T11:26:57;102237.38;;;8.93;100.00
31096;BME280;17749;51.962;8.560;2023-02-13T11:29:28;102231.16;;;8.97;100.00
31096;BME280;17749;51.962;8.560;2023-02-13T11:32:08;102244.47;;;9.14;100.00
31096;BME280;17749;51.962;8.560;2023-02-13T11:34:43;102238.25;;;9.25;100.00
31096;BME280;17749;51.962;8.560;2023-02-13T11:37:27;102229.38;;;9.39;100.00
31096;BME280;17749;51.962;8.560;2023-02-13T11:39:58;102231.13;;;9.40;100.00
31096;BME280;17749;51.962;8.560;2023-02-13T11:42:31;102225.81;;;9.48;100.00
31096;BME280;17749;51.962;8.560;2023-02-13T11:45:01;102227.59;;;9.52;100.00
31096;BME280;17749;51.962;8.560;2023-02-13T11:47:35;102231.13;;;9.57;100.00
31096;BME280;17749;51.962;8.560;2023-02-13T11:50:04;102211.63;;;9.52;100.00
31096;BME280;17749;51.962;8.560;2023-02-13T11:52:33;102214.28;;;9.51;100.00
31096;BME280;17749;51.962;8.560;2023-02-13T11:55:29;102216.03;;;9.58;100.00
31096;BME280;17749;51.962;8.560;2023-02-13T11:57:59;102208.91;;;9.66;100.00
31096;BME280;17749;51.962;8.560;2023-02-13T12:00:28;102216.91;;;9.71;100.00
31096;BME280;17749;51.962;8.560;2023-02-13T12:02:58;102200.97;;;9.64;100.00
31096;BME280;17749;51.962;8.560;2023-02-13T12:05:27;102204.50;;;9.60;100.00
31096;BME280;17749;51.962;8.560;2023-02-13T12:07:58;102202.72;;;9.62;100.00
31096;BME280;17749;51.962;8.560;2023-02-13T12:10:33;102195.63;;;9.64;100.00
31096;BME280;17749;51.962;8.560;2023-02-13T12:13:20;102202.75;;;9.59;100.00
31096;BME280;17749;51.962;8.560;2023-02-13T12:15:59;102193.84;;;9.63;100.00
31096;BME280;17749;51.962;8.560;2023-02-13T12:18:35;102190.28;;;9.69;100.00
31096;BME280;17749;51.962;8.560;2023-02-13T12:21:43;102182.34;;;9.60;100.00
31096;BME280;17749;51.962;8.560;2023-02-13T12:26:52;102173.50;;;9.56;100.00
31096;BME280;17749;51.962;8.560;2023-02-13T12:32:20;102166.41;;;9.51;100.00
31096;BME280;17749;51.962;8.560;2023-02-13T12:34:57;102165.53;;;9.52;100.00
31096;BME280;17749;51.962;8.560;2023-02-13T12:37:44;102162.88;;;9.52;100.00
31096;BME280;17749;51.962;8.560;2023-02-13T12:40:39;102153.13;;;9.49;100.00
31096;BME280;17749;51.962;8.560;2023-02-13T12:46:05;102144.28;;;9.32;100.00
31096;BME280;17749;51.962;8.560;2023-02-13T12:49:14;102156.75;;;9.14;100.00
31096;BME280;17749;51.962;8.560;2023-02-13T12:59:47;102133.66;;;9.29;100.00
31096;BME280;17749;51.962;8.560;2023-02-13T13:02:55;102134.59;;;9.20;100.00
31096;BME280;17749;51.962;8.560;2023-02-13T13:06:03;102131.94;;;9.15;100.00
31096;BME280;17749;51.962;8.560;2023-02-13T13:16:45;102108.94;;;8.99;100.00
31096;BME280;17749;51.962;8.560;2023-02-13T13:24:50;102108.94;;;8.84;100.00
31096;BME280;17749;51.962;8.560;2023-02-13T13:27:25;102106.28;;;8.82;100.00
31096;BME280;17749;51.962;8.560;2023-02-13T13:30:00;102104.50;;;8.80;100.00
31096;BME280;17749;51.962;8.560;2023-02-13T13:32:28;102097.44;;;8.78;100.00
31096;BME280;17749;51.962;8.560;2023-02-13T13:34:56;102100.97;;;8.81;100.00
31096;BME280;17749;51.962;8.560;2023-02-13T13:37:55;102107.19;;;8.78;100.00
31096;BME280;17749;51.962;8.560;2023-02-13T13:40:38;102109.84;;;8.78;100.00
31096;BME280;17749;51.962;8.560;2023-02-13T13:43:31;102100.09;;;8.75;100.00
31096;BME280;17749;51.962;8.560;2023-02-13T13:46:20;102105.38;;;8.85;100.00
31096;BME280;17749;51.962;8.560;2023-02-13T13:49:08;102094.75;;;8.85;100.00
31096;BME280;17749;51.962;8.560;2023-02-13T13:51:40;102093.00;;;8.74;100.00
31096;BME280;17749;51.962;8.560;2023-02-13T13:54:17;102095.66;;;8.71;100.00
31096;BME280;17749;51.962;8.560;2023-02-13T14:08:36;102095.66;;;8.64;100.00
31096;BME280;17749;51.962;8.560;2023-02-13T14:13:35;102087.69;;;8.53;100.00
31096;BME280;17749;51.962;8.560;2023-02-13T14:16:04;102081.50;;;8.49;100.00
31096;BME280;17749;51.962;8.560;2023-02-13T14:18:32;102073.53;;;8.49;100.00
31096;BME280;17749;51.962;8.560;2023-02-13T14:21:01;102077.09;;;8.47;100.00
31096;BME280;17749;51.962;8.560;2023-02-13T14:31:57;102075.31;;;8.52;100.00
31096;BME280;17749;51.962;8.560;2023-02-13T14:34:32;102076.19;;;8.48;100.00
31096;BME280;17749;51.962;8.560;2023-02-13T14:39:36;102075.31;;;8.49;100.00
31096;BME280;17749;51.962;8.560;2023-02-13T14:42:25;102076.19;;;8.51;100.00
31096;BME280;17749;51.962;8.560;2023-02-13T14:44:55;102069.13;;;8.47;100.00
31096;BME280;17749;51.962;8.560;2023-02-13T14:47:34;102067.34;;;8.47;100.00
31096;BME280;17749;51.962;8.560;2023-02-13T14:50:05;102068.22;;;8.48;100.00
31096;BME280;17749;51.962;8.560;2023-02-13T14:52:37;102067.31;;;8.46;100.00
31096;BME280;17749;51.962;8.560;2023-02-13T14:55:12;102067.31;;;8.46;100.00
31096;BME280;17749;51.962;8.560;2023-02-13T14:57:46;102064.69;;;8.40;100.00
31096;BME280;17749;51.962;8.560;2023-02-13T15:02:52;102072.66;;;8.40;100.00
31096;BME280;17749;51.962;8.560;2023-02-13T15:05:23;102064.63;;;8.30;100.00
31096;BME280;17749;51.962;8.560;2023-02-13T15:08:02;102064.66;;;8.37;100.00
31096;BME280;17749;51.962;8.560;2023-02-13T15:10:48;102059.31;;;8.35;100.00
31096;BME280;17749;51.962;8.560;2023-02-13T15:13:20;102062.03;;;8.40;100.00
31096;BME280;17749;51.962;8.560;2023-02-13T15:15:56;102059.34;;;8.37;100.00
31096;BME280;17749;51.962;8.560;2023-02-13T15:18:27;102059.34;;;8.37;100.00
31096;BME280;17749;51.962;8.560;2023-02-13T15:20:56;102055.78;;;8.38;100.00
31096;BME280;17749;51.962;8.560;2023-02-13T15:23:29;102049.63;;;8.28;100.00
31096;BME280;17749;51.962;8.560;2023-02-13T15:26:02;102046.03;;;8.30;100.00
31096;BME280;17749;51.962;8.560;2023-02-13T15:28:30;102042.53;;;8.28;100.00
31096;BME280;17749;51.962;8.560;2023-02-13T15:31:03;102043.41;;;8.26;100.00
31096;BME280;17749;51.962;8.560;2023-02-13T15:33:44;102043.41;;;8.27;100.00
31096;BME280;17749;51.962;8.560;2023-02-13T15:36:17;102036.34;;;8.23;100.00
31096;BME280;17749;51.962;8.560;2023-02-13T15:38:44;102035.44;;;8.21;100.00
31096;BME280;17749;51.962;8.560;2023-02-13T15:41:20;102031.91;;;8.13;100.00
31096;BME280;17749;51.962;8.560;2023-02-13T15:43:51;102039.84;;;8.08;100.00
31096;BME280;17749;51.962;8.560;2023-02-13T15:46:19;102038.06;;;8.09;100.00
31096;BME280;17749;51.962;8.560;2023-02-13T15:48:47;102050.50;;;8.07;100.00
31096;BME280;17749;51.962;8.560;2023-02-13T15:51:29;102048.69;;;8.03;100.00
31096;BME280;17749;51.962;8.560;2023-02-13T15:54:02;102036.28;;;7.96;100.00
31096;BME280;17749;51.962;8.560;2023-02-13T15:56:30;102037.19;;;7.90;100.00
31096;BME280;17749;51.962;8.560;2023-02-13T15:58:59;102048.66;;;7.90;100.00
31096;BME280;17749;51.962;8.560;2023-02-13T16:01:27;102036.28;;;7.83;100.00
31096;BME280;17749;51.962;8.560;2023-02-13T16:04:02;102038.94;;;7.79;100.00
31096;BME280;17749;51.962;8.560;2023-02-13T16:06:32;102037.16;;;7.76;100.00
31096;BME280;17749;51.962;8.560;2023-02-13T16:09:00;102025.59;;;7.65;100.00
31096;BME280;17749;51.962;8.560;2023-02-13T16:11:38;102029.19;;;7.65;100.00
31096;BME280;17749;51.962;8.560;2023-02-13T16:14:27;102031.81;;;7.64;100.00
31096;BME280;17749;51.962;8.560;2023-02-13T16:17:04;102013.25;;;7.58;100.00
31096;BME280;17749;51.962;8.560;2023-02-13T16:19:40;102026.47;;;7.53;100.00
31096;BME280;17749;51.962;8.560;2023-02-13T16:22:48;102019.38;;;7.49;100.00
31096;BME280;17749;51.962;8.560;2023-02-13T16:25:29;102018.47;;;7.41;100.00
31096;BME280;17749;51.962;8.560;2023-02-13T16:27:59;102016.75;;;7.41;100.00
31096;BME280;17749;51.962;8.560;2023-02-13T16:43:54;102024.53;;;7.08;100.00
31096;BME280;17749;51.962;8.560;2023-02-13T16:46:41;102028.06;;;7.08;100.00
31096;BME280;17749;51.962;8.560;2023-02-13T16:52:40;102028.91;;;6.98;100.00
31096;BME280;17749;51.962;8.560;2023-02-13T17:04:18;102038.50;;;6.76;100.00
31096;BME280;17749;51.962;8.560;2023-02-13T17:06:53;102038.41;;;6.64;100.00
31096;BME280;17749;51.962;8.560;2023-02-13T17:12:50;102044.50;;;6.53;100.00
31096;BME280;17749;51.962;8.560;2023-02-13T17:15:20;102052.41;;;6.50;100.00
31096;BME280;17749;51.962;8.560;2023-02-13T17:17:49;102039.16;;;6.47;100.00
31096;BME280;17749;51.962;8.560;2023-02-13T17:20:31;102060.38;;;6.50;100.00
31096;BME280;17749;51.962;8.560;2023-02-13T17:23:00;102059.47;;;6.50;100.00
31096;BME280;17749;51.962;8.560;2023-02-13T17:25:30;102067.41;;;6.48;100.00
31096;BME280;17749;51.962;8.560;2023-02-13T17:27:59;102069.13;;;6.43;100.00
31096;BME280;17749;51.962;8.560;2023-02-13T17:30:31;102062.88;;;6.36;100.00
31096;BME280;17749;51.962;8.560;2023-02-13T17:33:02;102068.16;;;6.36;100.00
31096;BME280;17749;51.962;8.560;2023-02-13T17:35:33;102062.88;;;6.35;100.00
31096;BME280;17749;51.962;8.560;2023-02-13T17:38:01;102061.09;;;6.32;100.00
31096;BME280;17749;51.962;8.560;2023-02-13T17:40:28;102054.00;;;6.28;100.00
31096;BME280;17749;51.962;8.560;2023-02-13T17:42:58;102058.34;;;6.22;100.00
31096;BME280;17749;51.962;8.560;2023-02-13T17:45:28;102054.78;;;6.18;100.00
31096;BME280;17749;51.962;8.560;2023-02-13T17:47:55;102060.06;;;6.13;100.00
31096;BME280;17749;51.962;8.560;2023-02-13T17:50:25;102060.91;;;6.11;100.00
31096;BME280;17749;51.962;8.560;2023-02-13T17:52:52;102049.38;;;6.07;100.00
31096;BME280;17749;51.962;8.560;2023-02-13T17:55:22;102049.38;;;6.04;100.00
31096;BME280;17749;51.962;8.560;2023-02-13T17:57:53;102052.88;;;6.00;100.00
31096;BME280;17749;51.962;8.560;2023-02-13T18:00:29;102048.38;;;5.95;100.00
31096;BME280;17749;51.962;8.560;2023-02-13T18:02:57;102045.69;;;5.90;100.00
31096;BME280;17749;51.962;8.560;2023-02-13T18:05:26;102048.25;;;5.85;100.00
31096;BME280;17749;51.962;8.560;2023-02-13T18:07:53;102045.59;;;5.82;100.00
31096;BME280;17749;51.962;8.560;2023-02-13T18:10:23;102041.13;;;5.77;100.00
31096;BME280;17749;51.962;8.560;2023-02-13T18:12:54;102046.41;;;5.75;100.00
31096;BME280;17749;51.962;8.560;2023-02-13T18:15:23;102048.97;;;5.70;100.00
31096;BME280;17749;51.962;8.560;2023-02-13T18:17:56;102041.00;;;5.64;100.00
31096;BME280;17749;51.962;8.560;2023-02-13T18:20:24;102040.06;;;5.59;100.00
31096;BME280;17749;51.962;8.560;2023-02-13T18:22:51;102039.16;;;5.56;100.00
31096;BME280;17749;51.962;8.560;2023-02-13T18:25:19;102047.00;;;5.53;100.00
31096;BME280;17749;51.962;8.560;2023-02-13T18:27:46;102046.97;;;5.48;100.00
31096;BME280;17749;51.962;8.560;2023-02-13T18:30:16;102041.66;;;5.45;100.00
31096;BME280;17749;51.962;8.560;2023-02-13T18:32:44;102044.25;;;5.42;100.00
31096;BME280;17749;51.962;8.560;2023-02-13T18:35:11;102050.41;;;5.41;100.00
31096;BME280;17749;51.962;8.560;2023-02-13T18:37:38;102045.13;;;5.41;100.00
31096;BME280;17749;51.962;8.560;2023-02-13T18:40:07;102045.13;;;5.41;100.00
31096;BME280;17749;51.962;8.560;2023-02-13T18:42:35;102041.56;;;5.39;100.00
31096;BME280;17749;51.962;8.560;2023-02-13T18:45:03;102038.94;;;5.37;100.00
31096;BME280;17749;51.962;8.560;2023-02-13T18:47:32;102039.78;;;5.35;100.00
31096;BME280;17749;51.962;8.560;2023-02-13T18:49:59;102039.72;;;5.32;100.00
31096;BME280;17749;51.962;8.560;2023-02-13T18:52:26;102046.75;;;5.30;100.00
31096;BME280;17749;51.962;8.560;2023-02-13T18:54:53;102048.47;;;5.27;100.00
31096;BME280;17749;51.962;8.560;2023-02-13T18:57:21;102041.38;;;5.23;100.00
31096;BME280;17749;51.962;8.560;2023-02-13T18:59:49;102042.25;;;5.22;100.00
31096;BME280;17749;51.962;8.560;2023-02-13T19:02:16;102039.56;;;5.19;100.00
31096;BME280;17749;51.962;8.560;2023-02-13T19:04:43;102039.56;;;5.19;100.00
31096;BME280;17749;51.962;8.560;2023-02-13T19:07:10;102034.19;;;5.13;100.00
31096;BME280;17749;51.962;8.560;2023-02-13T19:09:37;102042.97;;;5.11;100.00
31096;BME280;17749;51.962;8.560;2023-02-13T19:12:06;102042.09;;;5.10;100.00
31096;BME280;17749;51.962;8.560;2023-02-13T19:14:33;102041.13;;;5.05;100.00
31096;BME280;17749;51.962;8.560;2023-02-13T19:17:01;102048.13;;;5.03;100.00
31096;BME280;17749;51.962;8.560;2023-02-13T19:19:28;102034.91;;;5.00;100.00
31096;BME280;17749;51.962;8.560;2023-02-13T19:21:55;102042.78;;;4.97;100.00
31096;BME280;17749;51.962;8.560;2023-02-13T19:24:22;102036.59;;;4.93;100.00
31096;BME280;17749;51.962;8.560;2023-02-13T19:26:49;102040.06;;;4.91;100.00
31096;BME280;17749;51.962;8.560;2023-02-13T19:29:16;102040.88;;;4.87;100.00
31096;BME280;17749;51.962;8.560;2023-02-13T19:31:43;102032.97;;;4.85;100.00
31096;BME280;17749;51.962;8.560;2023-02-13T19:34:11;102033.78;;;4.82;100.00
31096;BME280;17749;51.962;8.560;2023-02-13T19:36:37;102039.03;;;4.79;100.00
31096;BME280;17749;51.962;8.560;2023-02-13T19:39:05;102046.00;;;4.74;100.00
31096;BME280;17749;51.962;8.560;2023-02-13T19:41:33;102039.81;;;4.72;100.00
31096;BME280;17749;51.962;8.560;2023-02-13T19:44:01;102048.56;;;4.70;100.00
31096;BME280;17749;51.962;8.560;2023-02-13T19:46:30;102045.88;;;4.68;100.00
31096;BME280;17749;51.962;8.560;2023-02-13T19:48:57;102049.38;;;4.66;100.00
31096;BME280;17749;51.962;8.560;2023-02-13T19:51:26;102044.94;;;4.63;100.00
31096;BME280;17749;51.962;8.560;2023-02-13T19:53:59;102051.03;;;4.59;100.00
31096;BME280;17749;51.962;8.560;2023-02-13T19:56:27;102051.88;;;4.56;100.00
31096;BME280;17749;51.962;8.560;2023-02-13T19:58:55;102047.44;;;4.54;100.00
31096;BME280;17749;51.962;8.560;2023-02-13T20:01:25;102036.81;;;4.49;100.00
31096;BME280;17749;51.962;8.560;2023-02-13T20:03:52;102034.97;;;4.45;100.00
31096;BME280;17749;51.962;8.560;2023-02-13T20:06:22;102034.97;;;4.44;100.00
31096;BME280;17749;51.962;8.560;2023-02-13T20:08:49;102036.72;;;4.45;100.00
31096;BME280;17749;51.962;8.560;2023-02-13T20:11:17;102039.34;;;4.43;100.00
31096;BME280;17749;51.962;8.560;2023-02-13T20:13:45;102039.28;;;4.40;100.00
31096;BME280;17749;51.962;8.560;2023-02-13T20:16:14;102040.13;;;4.37;100.00
31096;BME280;17749;51.962;8.560;2023-02-13T20:18:42;102039.22;;;4.35;100.00
31096;BME280;17749;51.962;8.560;2023-02-13T20:21:11;102044.50;;;4.35;100.00
31096;BME280;17749;51.962;8.560;2023-02-13T20:23:39;102042.72;;;4.33;100.00
31096;BME280;17749;51.962;8.560;2023-02-13T20:26:08;102046.19;;;4.30;100.00
31096;BME280;17749;51.962;8.560;2023-02-13T20:28:37;102045.31;;;4.31;100.00
31096;BME280;17749;51.962;8.560;2023-02-13T20:31:11;102046.16;;;4.29;100.00
31096;BME280;17749;51.962;8.560;2023-02-13T20:33:39;102047.91;;;4.28;100.00
31096;BME280;17749;51.962;8.560;2023-02-13T20:36:21;102043.41;;;4.24;100.00
31096;BME280;17749;51.962;8.560;2023-02-13T20:38:51;102048.66;;;4.21;100.00
31096;BME280;17749;51.962;8.560;2023-02-13T20:41:20;102043.31;;;4.18;100.00
31096;BME280;17749;51.962;8.560;2023-02-13T20:43:47;102036.28;;;4.18;100.00
31096;BME280;17749;51.962;8.560;2023-02-13T20:46:15;102039.81;;;4.19;100.00
31096;BME280;17749;51.962;8.560;2023-02-13T20:48:44;102042.44;;;4.19;100.00
31096;BME280;17749;51.962;8.560;2023-02-13T20:51:12;102036.28;;;4.17;100.00
31096;BME280;17749;51.962;8.560;2023-02-13T20:53:41;102038.94;;;4.17;100.00
31096;BME280;17749;51.962;8.560;2023-02-13T20:56:16;102038.84;;;4.12;100.00
31096;BME280;17749;51.962;8.560;2023-02-13T20:58:47;102031.81;;;4.11;100.00
31096;BME280;17749;51.962;8.560;2023-02-13T21:03:49;102030.88;;;4.09;100.00
31096;BME280;17749;51.962;8.560;2023-02-13T21:08:47;102034.34;;;4.07;100.00
31096;BME280;17749;51.962;8.560;2023-02-13T21:11:15;102038.66;;;4.03;100.00
31096;BME280;17749;51.962;8.560;2023-02-13T21:13:43;102040.38;;;4.00;100.00
31096;BME280;17749;51.962;8.560;2023-02-13T21:16:21;102042.13;;;3.99;100.00
31096;BME280;17749;51.962;8.560;2023-02-13T21:18:50;102043.00;;;4.00;100.00
31096;BME280;17749;51.962;8.560;2023-02-13T21:21:19;102043.88;;;3.99;100.00
31096;BME280;17749;51.962;8.560;2023-02-13T21:23:46;102040.31;;;3.97;100.00